sensor_id;sensor_type;location;lat;lon;timestamp;temperature;humidity
23010;DHT22;11671;49.990;8.028;2022-12-18T00:01:33;-3.50;99.90
23010;DHT22;11671;49.990;8.028;2022-12-18T00:04:02;-3.50;99.90
23010;DHT22;11671;49.990;8.028;2022-12-18T00:06:29;-3.60;99.90
23010;DHT22;11671;49.990;8.028;2022-12-18T00:08:57;-3.60;99.90
23010;DHT22;11671;49.990;8.028;2022-12-18T00:11:26;-3.60;99.90
23010;DHT22;11671;49.990;8.028;2022-12-18T00:13:54;-3.70;99.90
23010;DHT22;11671;49.990;8.028;2022-12-18T00:16:22;-3.70;99.90
23010;DHT22;11671;49.990;8.028;2022-12-18T00:18:53;-3.80;99.90
23010;DHT22;11671;49.990;8.028;2022-12-18T00:21:20;-3.80;99.90
23010;DHT22;11671;49.990;8.028;2022-12-18T00:23:46;-3.80;99.90
23010;DHT22;11671;49.990;8.028;2022-12-18T00:26:24;-3.80;99.90
23010;DHT22;11671;49.990;8.028;2022-12-18T00:28:50;-3.90;99.90
23010;DHT22;11671;49.990;8.028;2022-12-18T00:31:20;-3.90;99.90
23010;DHT22;11671;49.990;8.028;2022-12-18T00:33:46;-4.00;99.90
23010;DHT22;11671;49.990;8.028;2022-12-18T00:36:17;-4.00;99.90
23010;DHT22;11671;49.990;8.028;2022-12-18T00:38:44;-4.00;99.90
23010;DHT22;11671;49.990;8.028;2022-12-18T00:41:11;-3.90;99.90
23010;DHT22;11671;49.990;8.028;2022-12-18T00:43:38;-3.80;99.90
23010;DHT22;11671;49.990;8.028;2022-12-18T00:46:04;-3.80;99.90
23010;DHT22;11671;49.990;8.028;2022-12-18T00:48:30;-4.00;99.90
23010;DHT22;11671;49.990;8.028;2022-12-18T00:50:55;-4.00;99.90
23010;DHT22;11671;49.990;8.028;2022-12-18T00:53:21;-4.00;99.90
23010;DHT22;11671;49.990;8.028;2022-12-18T00:55:47;-4.00;99.90
23010;DHT22;11671;49.990;8.028;2022-12-18T00:58:14;-4.00;99.90
23010;DHT22;11671;49.990;8.028;2022-12-18T01:00:41;-4.10;99.90
23010;DHT22;11671;49.990;8.028;2022-12-18T01:03:07;-4.20;99.90
23010;DHT22;11671;49.990;8.028;2022-12-18T01:05:33;-4.10;99.90
23010;DHT22;11671;49.990;8.028;2022-12-18T01:07:59;-4.10;99.90
23010;DHT22;11671;49.990;8.028;2022-12-18T01:10:25;-4.00;99.90
23010;DHT22;11671;49.990;8.028;2022-12-18T01:12:51;-4.00;99.90
23010;DHT22;11671;49.990;8.028;2022-12-18T01:15:17;-4.00;99.90
23010;DHT22;11671;49.990;8.028;2022-12-18T01:17:43;-4.10;99.90
23010;DHT22;11671;49.990;8.028;2022-12-18T01:20:11;-4.00;99.90
23010;DHT22;11671;49.990;8.028;2022-12-18T01:22:36;-4.10;99.90
23010;DHT22;11671;49.990;8.028;2022-12-18T01:25:03;-4.10;99.90
23010;DHT22;11671;49.990;8.028;2022-12-18T01:27:29;-4.10;99.90
23010;DHT22;11671;49.990;8.028;2022-12-18T01:29:55;-4.20;99.90
23010;DHT22;11671;49.990;8.028;2022-12-18T01:32:21;-4.30;99.90
23010;DHT22;11671;49.990;8.028;2022-12-18T01:34:47;-4.30;99.90
23010;DHT22;11671;49.990;8.028;2022-12-18T01:37:13;-4.40;99.90
23010;DHT22;11671;49.990;8.028;2022-12-18T01:39:38;-4.30;99.90
23010;DHT22;11671;49.990;8.028;2022-12-18T01:42:10;-4.40;99.90
23010;DHT22;11671;49.990;8.028;2022-12-18T01:45:00;-4.40;99.90
23010;DHT22;11671;49.990;8.028;2022-12-18T01:52:34;-4.40;99.90
23010;DHT22;11671;49.990;8.028;2022-12-18T01:55:03;-4.30;99.90
23010;DHT22;11671;49.990;8.028;2022-12-18T01:57:30;-4.30;99.90
23010;DHT22;11671;49.990;8.028;2022-12-18T02:00:00;-4.30;99.90
23010;DHT22;11671;49.990;8.028;2022-12-18T02:02:28;-4.40;99.90
23010;DHT22;11671;49.990;8.028;2022-12-18T02:04:54;-4.40;99.90
23010;DHT22;11671;49.990;8.028;2022-12-18T02:09:59;-4.30;99.90
23010;DHT22;11671;49.990;8.028;2022-12-18T02:12:38;-4.30;99.90
23010;DHT22;11671;49.990;8.028;2022-12-18T02:15:18;-4.30;99.90
23010;DHT22;11671;49.990;8.028;2022-12-18T02:17:52;-4.40;99.90
23010;DHT22;11671;49.990;8.028;2022-12-18T02:20:33;-4.40;99.90
23010;DHT22;11671;49.990;8.028;2022-12-18T02:28:53;-4.30;99.90
23010;DHT22;11671;49.990;8.028;2022-12-18T02:31:24;-4.30;99.90
23010;DHT22;11671;49.990;8.028;2022-12-18T02:33:53;-4.20;99.90
23010;DHT22;11671;49.990;8.028;2022-12-18T02:36:22;-4.20;99.90
23010;DHT22;11671;49.990;8.028;2022-12-18T02:38:50;-4.30;99.90
23010;DHT22;11671;49.990;8.028;2022-12-18T02:41:18;-4.40;99.90
23010;DHT22;11671;49.990;8.028;2022-12-18T02:43:49;-4.50;99.90
23010;DHT22;11671;49.990;8.028;2022-12-18T02:46:32;-4.50;99.90
23010;DHT22;11671;49.990;8.028;2022-12-18T02:49:16;-4.50;99.90
23010;DHT22;11671;49.990;8.028;2022-12-18T02:51:58;-4.40;99.90
23010;DHT22;11671;49.990;8.028;2022-12-18T02:57:14;-4.50;99.90
23010;DHT22;11671;49.990;8.028;2022-12-18T02:59:56;-4.50;99.90
23010;DHT22;11671;49.990;8.028;2022-12-18T03:05:17;-4.60;99.90
23010;DHT22;11671;49.990;8.028;2022-12-18T03:10:16;-4.70;99.90
23010;DHT22;11671;49.990;8.028;2022-12-18T03:12:49;-4.70;99.90
23010;DHT22;11671;49.990;8.028;2022-12-18T03:15:28;-4.70;99.90
23010;DHT22;11671;49.990;8.028;2022-12-18T03:18:00;-4.70;99.90
23010;DHT22;11671;49.990;8.028;2022-12-18T03:20:29;-4.60;99.90
23010;DHT22;11671;49.990;8.028;2022-12-18T03:23:02;-4.60;99.90
23010;DHT22;11671;49.990;8.028;2022-12-18T03:25:30;-4.50;99.90
23010;DHT22;11671;49.990;8.028;2022-12-18T03:27:59;-4.50;99.90
23010;DHT22;11671;49.990;8.028;2022-12-18T03:30:26;-4.60;99.90
23010;DHT22;11671;49.990;8.028;2022-12-18T03:32:58;-4.80;99.90
23010;DHT22;11671;49.990;8.028;2022-12-18T03:35:30;-4.80;99.90
23010;DHT22;11671;49.990;8.028;2022-12-18T03:37:57;-4.90;99.90
23010;DHT22;11671;49.990;8.028;2022-12-18T03:40:35;-4.90;99.90
23010;DHT22;11671;49.990;8.028;2022-12-18T03:43:10;-4.90;99.90
23010;DHT22;11671;49.990;8.028;2022-12-18T03:45:48;-4.90;99.90
23010;DHT22;11671;49.990;8.028;2022-12-18T03:51:03;-5.00;99.90
23010;DHT22;11671;49.990;8.028;2022-12-18T03:53:59;-5.10;99.90
23010;DHT22;11671;49.990;8.028;2022-12-18T03:56:29;-5.10;99.90
23010;DHT22;11671;49.990;8.028;2022-12-18T03:58:57;-5.00;99.90
23010;DHT22;11671;49.990;8.028;2022-12-18T04:01:38;-4.90;99.90
23010;DHT22;11671;49.990;8.028;2022-12-18T04:04:06;-4.80;99.90
23010;DHT22;11671;49.990;8.028;2022-12-18T04:06:35;-4.80;99.90
23010;DHT22;11671;49.990;8.028;2022-12-18T04:09:01;-4.80;99.90
23010;DHT22;11671;49.990;8.028;2022-12-18T04:11:27;-4.90;99.90
23010;DHT22;11671;49.990;8.028;2022-12-18T04:13:56;-4.90;99.90
23010;DHT22;11671;49.990;8.028;2022-12-18T04:16:23;-5.00;99.90
23010;DHT22;11671;49.990;8.028;2022-12-18T04:18:49;-5.00;99.90
23010;DHT22;11671;49.990;8.028;2022-12-18T04:21:14;-5.00;99.90
23010;DHT22;11671;49.990;8.028;2022-12-18T04:23:40;-5.00;99.90
23010;DHT22;11671;49.990;8.028;2022-12-18T04:26:06;-5.10;99.90
23010;DHT22;11671;49.990;8.028;2022-12-18T04:28:31;-5.10;99.90
23010;DHT22;11671;49.990;8.028;2022-12-18T04:30:57;-5.10;99.90
23010;DHT22;11671;49.990;8.028;2022-12-18T04:33:22;-5.10;99.90
23010;DHT22;11671;49.990;8.028;2022-12-18T04:35:48;-5.00;99.90
23010;DHT22;11671;49.990;8.028;2022-12-18T04:38:13;-5.10;99.90
23010;DHT22;11671;49.990;8.028;2022-12-18T04:40:39;-5.10;99.90
23010;DHT22;11671;49.990;8.028;2022-12-18T04:43:05;-5.20;99.90
23010;DHT22;11671;49.990;8.028;2022-12-18T04:45:31;-5.20;99.90
23010;DHT22;11671;49.990;8.028;2022-12-18T04:48:01;-5.20;99.90
23010;DHT22;11671;49.990;8.028;2022-12-18T04:50:27;-5.20;99.90
23010;DHT22;11671;49.990;8.028;2022-12-18T04:52:53;-5.20;99.90
23010;DHT22;11671;49.990;8.028;2022-12-18T04:55:18;-5.20;99.90
23010;DHT22;11671;49.990;8.028;2022-12-18T04:57:44;-5.20;99.90
23010;DHT22;11671;49.990;8.028;2022-12-18T05:00:10;-5.10;99.90
23010;DHT22;11671;49.990;8.028;2022-12-18T05:02:36;-5.10;99.90
23010;DHT22;11671;49.990;8.028;2022-12-18T05:05:02;-5.10;99.90
23010;DHT22;11671;49.990;8.028;2022-12-18T05:07:28;-5.00;99.90
23010;DHT22;11671;49.990;8.028;2022-12-18T05:09:53;-5.00;99.90
23010;DHT22;11671;49.990;8.028;2022-12-18T05:12:19;-5.00;99.90
23010;DHT22;11671;49.990;8.028;2022-12-18T05:14:44;-5.00;99.90
23010;DHT22;11671;49.990;8.028;2022-12-18T05:17:10;-5.00;99.90
23010;DHT22;11671;49.990;8.028;2022-12-18T05:19:36;-5.10;99.90
23010;DHT22;11671;49.990;8.028;2022-12-18T05:22:01;-5.10;99.90
23010;DHT22;11671;49.990;8.028;2022-12-18T05:24:27;-5.10;99.90
23010;DHT22;11671;49.990;8.028;2022-12-18T05:26:53;-5.10;99.90
23010;DHT22;11671;49.990;8.028;2022-12-18T05:29:18;-5.10;99.90
23010;DHT22;11671;49.990;8.028;2022-12-18T05:31:44;-5.10;99.90
23010;DHT22;11671;49.990;8.028;2022-12-18T05:34:09;-5.10;99.90
23010;DHT22;11671;49.990;8.028;2022-12-18T05:36:35;-5.10;99.90
23010;DHT22;11671;49.990;8.028;2022-12-18T05:39:01;-5.10;99.90
23010;DHT22;11671;49.990;8.028;2022-12-18T05:41:27;-5.10;99.90
23010;DHT22;11671;49.990;8.028;2022-12-18T05:43:52;-5.10;99.90
23010;DHT22;11671;49.990;8.028;2022-12-18T05:46:18;-5.10;99.90
23010;DHT22;11671;49.990;8.028;2022-12-18T05:48:44;-5.30;99.90
23010;DHT22;11671;49.990;8.028;2022-12-18T05:51:15;-5.30;99.90
23010;DHT22;11671;49.990;8.028;2022-12-18T05:53:41;-5.30;99.90
23010;DHT22;11671;49.990;8.028;2022-12-18T05:56:12;-5.30;99.90
23010;DHT22;11671;49.990;8.028;2022-12-18T05:58:38;-5.30;99.90
23010;DHT22;11671;49.990;8.028;2022-12-18T06:01:30;-5.30;99.90
23010;DHT22;11671;49.990;8.028;2022-12-18T06:03:55;-5.30;99.90
23010;DHT22;11671;49.990;8.028;2022-12-18T06:06:26;-5.40;99.90
23010;DHT22;11671;49.990;8.028;2022-12-18T06:08:53;-5.50;99.90
23010;DHT22;11671;49.990;8.028;2022-12-18T06:11:23;-5.50;99.90
23010;DHT22;11671;49.990;8.028;2022-12-18T06:13:53;-5.50;99.90
23010;DHT22;11671;49.990;8.028;2022-12-18T06:16:19;-5.60;99.90
23010;DHT22;11671;49.990;8.028;2022-12-18T06:18:45;-5.70;99.90
23010;DHT22;11671;49.990;8.028;2022-12-18T06:21:11;-5.70;99.90
23010;DHT22;11671;49.990;8.028;2022-12-18T06:23:37;-5.90;99.90
23010;DHT22;11671;49.990;8.028;2022-12-18T06:26:04;-6.00;99.90
23010;DHT22;11671;49.990;8.028;2022-12-18T06:28:30;-6.10;99.90
23010;DHT22;11671;49.990;8.028;2022-12-18T06:30:56;-6.10;99.90
23010;DHT22;11671;49.990;8.028;2022-12-18T06:33:22;-6.10;99.90
23010;DHT22;11671;49.990;8.028;2022-12-18T06:35:51;-6.10;99.90
23010;DHT22;11671;49.990;8.028;2022-12-18T06:38:16;-6.00;99.90
23010;DHT22;11671;49.990;8.028;2022-12-18T06:40:42;-6.00;99.90
23010;DHT22;11671;49.990;8.028;2022-12-18T06:43:07;-6.00;99.90
23010;DHT22;11671;49.990;8.028;2022-12-18T06:45:33;-6.00;99.90
23010;DHT22;11671;49.990;8.028;2022-12-18T06:47:59;-6.00;99.90
23010;DHT22;11671;49.990;8.028;2022-12-18T06:50:26;-5.90;99.90
23010;DHT22;11671;49.990;8.028;2022-12-18T06:52:51;-5.80;99.90
23010;DHT22;11671;49.990;8.028;2022-12-18T06:55:17;-5.70;99.90
23010;DHT22;11671;49.990;8.028;2022-12-18T06:57:43;-5.60;99.90
23010;DHT22;11671;49.990;8.028;2022-12-18T07:00:08;-5.70;99.90
23010;DHT22;11671;49.990;8.028;2022-12-18T07:02:34;-5.70;99.90
23010;DHT22;11671;49.990;8.028;2022-12-18T07:05:00;-5.70;99.90
23010;DHT22;11671;49.990;8.028;2022-12-18T07:07:26;-5.60;99.90
23010;DHT22;11671;49.990;8.028;2022-12-18T07:09:51;-5.70;99.90
23010;DHT22;11671;49.990;8.028;2022-12-18T07:12:17;-5.80;99.90
23010;DHT22;11671;49.990;8.028;2022-12-18T07:14:43;-5.80;99.90
23010;DHT22;11671;49.990;8.028;2022-12-18T07:17:08;-5.80;99.90
23010;DHT22;11671;49.990;8.028;2022-12-18T07:19:34;-5.80;99.90
23010;DHT22;11671;49.990;8.028;2022-12-18T07:22:00;-5.80;99.90
23010;DHT22;11671;49.990;8.028;2022-12-18T07:24:25;-5.70;99.90
23010;DHT22;11671;49.990;8.028;2022-12-18T07:26:51;-5.70;99.90
23010;DHT22;11671;49.990;8.028;2022-12-18T07:29:17;-5.60;99.90
23010;DHT22;11671;49.990;8.028;2022-12-18T07:31:43;-5.70;99.90
23010;DHT22;11671;49.990;8.028;2022-12-18T07:34:12;-5.70;99.90
23010;DHT22;11671;49.990;8.028;2022-12-18T07:36:38;-5.70;99.90
23010;DHT22;11671;49.990;8.028;2022-12-18T07:39:04;-5.50;99.90
23010;DHT22;11671;49.990;8.028;2022-12-18T07:41:29;-5.50;99.90
23010;DHT22;11671;49.990;8.028;2022-12-18T07:43:55;-5.60;99.90
23010;DHT22;11671;49.990;8.028;2022-12-18T07:46:20;-5.60;99.90
23010;DHT22;11671;49.990;8.028;2022-12-18T07:48:46;-5.50;99.90
23010;DHT22;11671;49.990;8.028;2022-12-18T07:51:12;-5.50;99.90
23010;DHT22;11671;49.990;8.028;2022-12-18T07:53:38;-5.50;99.90
23010;DHT22;11671;49.990;8.028;2022-12-18T07:56:07;-5.60;99.90
23010;DHT22;11671;49.990;8.028;2022-12-18T07:58:33;-5.40;99.90
23010;DHT22;11671;49.990;8.028;2022-12-18T08:01:17;-5.30;99.90
23010;DHT22;11671;49.990;8.028;2022-12-18T08:03:42;-5.30;99.90
23010;DHT22;11671;49.990;8.028;2022-12-18T08:06:09;-5.30;99.90
23010;DHT22;11671;49.990;8.028;2022-12-18T08:08:35;-5.30;99.90
23010;DHT22;11671;49.990;8.028;2022-12-18T08:11:01;-5.30;99.90
23010;DHT22;11671;49.990;8.028;2022-12-18T08:13:27;-5.30;99.90
23010;DHT22;11671;49.990;8.028;2022-12-18T08:16:05;-5.40;99.90
23010;DHT22;11671;49.990;8.028;2022-12-18T08:18:33;-5.40;99.90
23010;DHT22;11671;49.990;8.028;2022-12-18T08:21:08;-5.40;99.90
23010;DHT22;11671;49.990;8.028;2022-12-18T08:23:33;-5.40;99.90
23010;DHT22;11671;49.990;8.028;2022-12-18T08:25:59;-5.40;99.90
23010;DHT22;11671;49.990;8.028;2022-12-18T08:28:24;-5.40;99.90
23010;DHT22;11671;49.990;8.028;2022-12-18T08:30:52;-5.20;99.90
23010;DHT22;11671;49.990;8.028;2022-12-18T08:33:17;-5.10;99.90
23010;DHT22;11671;49.990;8.028;2022-12-18T08:35:43;-5.00;99.90
23010;DHT22;11671;49.990;8.028;2022-12-18T08:38:09;-5.00;99.90
23010;DHT22;11671;49.990;8.028;2022-12-18T08:40:34;-4.90;99.90
23010;DHT22;11671;49.990;8.028;2022-12-18T08:43:00;-4.80;99.90
23010;DHT22;11671;49.990;8.028;2022-12-18T08:45:44;-4.60;99.90
23010;DHT22;11671;49.990;8.028;2022-12-18T08:48:09;-4.60;99.90
23010;DHT22;11671;49.990;8.028;2022-12-18T08:50:35;-4.60;99.90
23010;DHT22;11671;49.990;8.028;2022-12-18T08:53:01;-4.60;99.90
23010;DHT22;11671;49.990;8.028;2022-12-18T08:55:26;-4.60;99.90
23010;DHT22;11671;49.990;8.028;2022-12-18T08:57:52;-4.60;99.90
23010;DHT22;11671;49.990;8.028;2022-12-18T09:00:18;-4.60;99.90
23010;DHT22;11671;49.990;8.028;2022-12-18T09:02:43;-4.60;99.90
23010;DHT22;11671;49.990;8.028;2022-12-18T09:05:09;-4.50;99.90
23010;DHT22;11671;49.990;8.028;2022-12-18T09:07:35;-4.50;99.90
23010;DHT22;11671;49.990;8.028;2022-12-18T09:10:00;-4.40;99.90
23010;DHT22;11671;49.990;8.028;2022-12-18T09:12:26;-4.50;99.90
23010;DHT22;11671;49.990;8.028;2022-12-18T09:14:52;-4.40;99.90
23010;DHT22;11671;49.990;8.028;2022-12-18T09:17:17;-4.50;99.90
23010;DHT22;11671;49.990;8.028;2022-12-18T09:19:43;-4.50;99.90
23010;DHT22;11671;49.990;8.028;2022-12-18T09:22:09;-4.60;99.90
23010;DHT22;11671;49.990;8.028;2022-12-18T09:24:35;-4.60;99.90
23010;DHT22;11671;49.990;8.028;2022-12-18T09:27:00;-4.50;99.90
23010;DHT22;11671;49.990;8.028;2022-12-18T09:29:26;-4.30;99.90
23010;DHT22;11671;49.990;8.028;2022-12-18T09:31:52;-4.20;99.90
23010;DHT22;11671;49.990;8.028;2022-12-18T09:34:17;-4.10;99.90
23010;DHT22;11671;49.990;8.028;2022-12-18T09:36:43;-3.90;99.90
23010;DHT22;11671;49.990;8.028;2022-12-18T09:39:09;-3.90;99.90
23010;DHT22;11671;49.990;8.028;2022-12-18T09:41:55;-3.80;99.90
23010;DHT22;11671;49.990;8.028;2022-12-18T09:44:42;-3.80;99.90
23010;DHT22;11671;49.990;8.028;2022-12-18T09:49:39;-3.50;99.90
23010;DHT22;11671;49.990;8.028;2022-12-18T09:52:14;-3.40;99.90
23010;DHT22;11671;49.990;8.028;2022-12-18T09:54:42;-3.40;99.90
23010;DHT22;11671;49.990;8.028;2022-12-18T09:57:29;-3.40;99.90
23010;DHT22;11671;49.990;8.028;2022-12-18T10:00:11;-3.30;99.90
23010;DHT22;11671;49.990;8.028;2022-12-18T10:02:40;-3.20;99.90
23010;DHT22;11671;49.990;8.028;2022-12-18T10:05:15;-3.00;99.90
23010;DHT22;11671;49.990;8.028;2022-12-18T10:08:01;-2.90;99.90
23010;DHT22;11671;49.990;8.028;2022-12-18T10:10:48;-2.70;99.90
23010;DHT22;11671;49.990;8.028;2022-12-18T10:13:37;-2.40;99.90
23010;DHT22;11671;49.990;8.028;2022-12-18T10:16:09;-2.20;99.90
23010;DHT22;11671;49.990;8.028;2022-12-18T10:21:14;-2.10;99.90
23010;DHT22;11671;49.990;8.028;2022-12-18T10:26:31;-1.80;99.90
23010;DHT22;11671;49.990;8.028;2022-12-18T10:28:57;-1.80;99.90
23010;DHT22;11671;49.990;8.028;2022-12-18T10:31:24;-1.70;99.90
23010;DHT22;11671;49.990;8.028;2022-12-18T10:33:50;-1.80;99.90
23010;DHT22;11671;49.990;8.028;2022-12-18T10:36:16;-1.80;99.90
23010;DHT22;11671;49.990;8.028;2022-12-18T10:38:42;-1.90;99.90
23010;DHT22;11671;49.990;8.028;2022-12-18T10:44:12;-1.80;99.90
23010;DHT22;11671;49.990;8.028;2022-12-18T10:46:40;-1.70;99.90
23010;DHT22;11671;49.990;8.028;2022-12-18T10:49:19;-1.60;99.90
23010;DHT22;11671;49.990;8.028;2022-12-18T10:51:46;-1.50;99.90
23010;DHT22;11671;49.990;8.028;2022-12-18T10:54:23;-1.60;99.90
23010;DHT22;11671;49.990;8.028;2022-12-18T10:56:49;-1.60;99.90
23010;DHT22;11671;49.990;8.028;2022-12-18T10:59:17;-1.60;99.90
23010;DHT22;11671;49.990;8.028;2022-12-18T11:01:55;-1.60;99.90
23010;DHT22;11671;49.990;8.028;2022-12-18T11:04:26;-1.70;99.90
23010;DHT22;11671;49.990;8.028;2022-12-18T11:07:06;-1.60;99.90
23010;DHT22;11671;49.990;8.028;2022-12-18T11:09:36;-1.60;99.90
23010;DHT22;11671;49.990;8.028;2022-12-18T11:12:22;-1.50;99.90
23010;DHT22;11671;49.990;8.028;2022-12-18T11:14:49;-1.40;99.90
23010;DHT22;11671;49.990;8.028;2022-12-18T11:17:20;-1.30;99.90
23010;DHT22;11671;49.990;8.028;2022-12-18T11:19:55;-1.20;99.90
23010;DHT22;11671;49.990;8.028;2022-12-18T11:22:33;-1.30;99.90
23010;DHT22;11671;49.990;8.028;2022-12-18T11:27:28;-1.40;99.90
23010;DHT22;11671;49.990;8.028;2022-12-18T11:30:09;-1.30;99.90
23010;DHT22;11671;49.990;8.028;2022-12-18T11:32:35;-1.20;99.90
23010;DHT22;11671;49.990;8.028;2022-12-18T11:38:04;-1.00;99.90
23010;DHT22;11671;49.990;8.028;2022-12-18T11:40:40;-1.00;99.90
23010;DHT22;11671;49.990;8.028;2022-12-18T11:43:50;-0.90;99.90
23010;DHT22;11671;49.990;8.028;2022-12-18T11:46:32;-1.00;99.90
23010;DHT22;11671;49.990;8.028;2022-12-18T11:49:06;-1.10;99.90
23010;DHT22;11671;49.990;8.028;2022-12-18T11:51:37;-1.20;99.90
23010;DHT22;11671;49.990;8.028;2022-12-18T11:54:14;-1.40;99.90
23010;DHT22;11671;49.990;8.028;2022-12-18T11:57:10;-1.40;99.90
23010;DHT22;11671;49.990;8.028;2022-12-18T12:05:37;-1.80;99.90
23010;DHT22;11671;49.990;8.028;2022-12-18T12:10:58;-1.70;99.90
23010;DHT22;11671;49.990;8.028;2022-12-18T12:17:03;-1.40;99.90
23010;DHT22;11671;49.990;8.028;2022-12-18T12:22:28;-1.60;99.90
23010;DHT22;11671;49.990;8.028;2022-12-18T12:27:26;-1.60;99.90
23010;DHT22;11671;49.990;8.028;2022-12-18T12:30:02;-1.70;99.90
23010;DHT22;11671;49.990;8.028;2022-12-18T12:35:22;-1.50;99.90
23010;DHT22;11671;49.990;8.028;2022-12-18T12:38:00;-1.40;99.90
23010;DHT22;11671;49.990;8.028;2022-12-18T12:40:33;-1.30;99.90
23010;DHT22;11671;49.990;8.028;2022-12-18T12:43:39;-1.30;99.90
23010;DHT22;11671;49.990;8.028;2022-12-18T12:46:09;-1.50;99.90
23010;DHT22;11671;49.990;8.028;2022-12-18T12:48:42;-1.40;99.90
23010;DHT22;11671;49.990;8.028;2022-12-18T12:51:24;-1.30;99.90
23010;DHT22;11671;49.990;8.028;2022-12-18T12:53:50;-1.20;99.90
23010;DHT22;11671;49.990;8.028;2022-12-18T12:56:19;-1.20;99.90
23010;DHT22;11671;49.990;8.028;2022-12-18T13:01:49;-1.20;99.90
23010;DHT22;11671;49.990;8.028;2022-12-18T13:04:47;-1.20;99.90
23010;DHT22;11671;49.990;8.028;2022-12-18T13:07:16;-1.10;99.90
23010;DHT22;11671;49.990;8.028;2022-12-18T13:20:43;-1.00;99.90
23010;DHT22;11671;49.990;8.028;2022-12-18T13:28:20;-1.00;99.90
23010;DHT22;11671;49.990;8.028;2022-12-18T13:41:01;-1.00;99.90
23010;DHT22;11671;49.990;8.028;2022-12-18T13:43:40;-1.10;99.90
23010;DHT22;11671;49.990;8.028;2022-12-18T13:46:29;-1.10;99.90
23010;DHT22;11671;49.990;8.028;2022-12-18T13:51:44;-1.20;99.90
23010;DHT22;11671;49.990;8.028;2022-12-18T13:54:25;-1.20;99.90
23010;DHT22;11671;49.990;8.028;2022-12-18T13:56:53;-1.20;99.90
23010;DHT22;11671;49.990;8.028;2022-12-18T14:01:57;-1.20;99.90
23010;DHT22;11671;49.990;8.028;2022-12-18T14:04:30;-1.20;99.90
23010;DHT22;11671;49.990;8.028;2022-12-18T14:07:12;-1.20;99.90
23010;DHT22;11671;49.990;8.028;2022-12-18T14:09:45;-1.30;99.90
23010;DHT22;11671;49.990;8.028;2022-12-18T14:12:21;-1.30;99.90
23010;DHT22;11671;49.990;8.028;2022-12-18T14:17:42;-1.30;99.90
23010;DHT22;11671;49.990;8.028;2022-12-18T14:20:14;-1.30;99.90
23010;DHT22;11671;49.990;8.028;2022-12-18T14:22:46;-1.30;99.90
23010;DHT22;11671;49.990;8.028;2022-12-18T14:27:42;-1.30;99.90
23010;DHT22;11671;49.990;8.028;2022-12-18T14:35:27;-1.40;99.90
23010;DHT22;11671;49.990;8.028;2022-12-18T14:40:43;-1.50;99.90
23010;DHT22;11671;49.990;8.028;2022-12-18T14:43:10;-1.50;99.90
23010;DHT22;11671;49.990;8.028;2022-12-18T14:45:42;-1.50;99.90
23010;DHT22;11671;49.990;8.028;2022-12-18T14:48:18;-1.50;99.90
23010;DHT22;11671;49.990;8.028;2022-12-18T14:50:44;-1.50;99.90
23010;DHT22;11671;49.990;8.028;2022-12-18T14:53:43;-1.60;99.90
23010;DHT22;11671;49.990;8.028;2022-12-18T14:58:58;-1.80;99.90
23010;DHT22;11671;49.990;8.028;2022-12-18T15:03:53;-1.90;99.90
23010;DHT22;11671;49.990;8.028;2022-12-18T15:06:27;-1.80;99.90
23010;DHT22;11671;49.990;8.028;2022-12-18T15:08:53;-1.90;99.90
23010;DHT22;11671;49.990;8.028;2022-12-18T15:11:32;-2.00;99.90
23010;DHT22;11671;49.990;8.028;2022-12-18T15:13:59;-2.00;99.90
23010;DHT22;11671;49.990;8.028;2022-12-18T15:16:26;-2.00;99.90
23010;DHT22;11671;49.990;8.028;2022-12-18T15:18:52;-2.00;99.90
23010;DHT22;11671;49.990;8.028;2022-12-18T15:21:19;-2.00;99.90
23010;DHT22;11671;49.990;8.028;2022-12-18T15:23:49;-2.10;99.90
23010;DHT22;11671;49.990;8.028;2022-12-18T15:26:18;-2.00;99.90
23010;DHT22;11671;49.990;8.028;2022-12-18T15:28:48;-2.10;99.90
23010;DHT22;11671;49.990;8.028;2022-12-18T15:33:44;-2.10;99.90
23010;DHT22;11671;49.990;8.028;2022-12-18T15:36:16;-2.00;99.90
23010;DHT22;11671;49.990;8.028;2022-12-18T15:38:49;-2.00;99.90
23010;DHT22;11671;49.990;8.028;2022-12-18T15:41:18;-2.10;99.90
23010;DHT22;11671;49.990;8.028;2022-12-18T15:43:46;-2.20;99.90
23010;DHT22;11671;49.990;8.028;2022-12-18T15:46:14;-2.20;99.90
23010;DHT22;11671;49.990;8.028;2022-12-18T15:48:42;-2.20;99.90
23010;DHT22;11671;49.990;8.028;2022-12-18T15:53:44;-2.20;99.90
23010;DHT22;11671;49.990;8.028;2022-12-18T15:56:14;-2.10;99.90
23010;DHT22;11671;49.990;8.028;2022-12-18T15:58:59;-2.10;99.90
23010;DHT22;11671;49.990;8.028;2022-12-18T16:01:29;-2.10;99.90
23010;DHT22;11671;49.990;8.028;2022-12-18T16:03:56;-2.10;99.90
23010;DHT22;11671;49.990;8.028;2022-12-18T16:06:22;-2.20;99.90
23010;DHT22;11671;49.990;8.028;2022-12-18T16:08:48;-2.20;99.90
23010;DHT22;11671;49.990;8.028;2022-12-18T16:11:26;-2.10;99.90
23010;DHT22;11671;49.990;8.028;2022-12-18T16:14:20;-2.10;99.90
23010;DHT22;11671;49.990;8.028;2022-12-18T16:16:48;-2.10;99.90
23010;DHT22;11671;49.990;8.028;2022-12-18T16:19:15;-2.10;99.90
23010;DHT22;11671;49.990;8.028;2022-12-18T16:21:41;-2.10;99.90
23010;DHT22;11671;49.990;8.028;2022-12-18T16:24:16;-2.20;99.90
23010;DHT22;11671;49.990;8.028;2022-12-18T16:26:42;-2.10;99.90
23010;DHT22;11671;49.990;8.028;2022-12-18T16:29:09;-2.10;99.90
23010;DHT22;11671;49.990;8.028;2022-12-18T16:31:35;-2.10;99.90
23010;DHT22;11671;49.990;8.028;2022-12-18T16:34:15;-2.10;99.90
23010;DHT22;11671;49.990;8.028;2022-12-18T16:36:43;-2.10;99.90
23010;DHT22;11671;49.990;8.028;2022-12-18T16:39:08;-2.10;99.90
23010;DHT22;11671;49.990;8.028;2022-12-18T16:41:34;-2.10;99.90
23010;DHT22;11671;49.990;8.028;2022-12-18T16:44:01;-2.10;99.90
23010;DHT22;11671;49.990;8.028;2022-12-18T16:46:26;-2.10;99.90
23010;DHT22;11671;49.990;8.028;2022-12-18T16:48:52;-2.10;99.90
23010;DHT22;11671;49.990;8.028;2022-12-18T16:51:18;-2.10;99.90
23010;DHT22;11671;49.990;8.028;2022-12-18T16:53:43;-2.00;99.90
23010;DHT22;11671;49.990;8.028;2022-12-18T16:56:09;-2.00;99.90
23010;DHT22;11671;49.990;8.028;2022-12-18T16:58:35;-1.90;99.90
23010;DHT22;11671;49.990;8.028;2022-12-18T17:01:00;-1.90;99.90
23010;DHT22;11671;49.990;8.028;2022-12-18T17:03:26;-1.90;99.90
23010;DHT22;11671;49.990;8.028;2022-12-18T17:05:52;-2.00;99.90
23010;DHT22;11671;49.990;8.028;2022-12-18T17:08:17;-2.00;99.90
23010;DHT22;11671;49.990;8.028;2022-12-18T17:10:43;-2.00;99.90
23010;DHT22;11671;49.990;8.028;2022-12-18T17:13:08;-2.00;99.90
23010;DHT22;11671;49.990;8.028;2022-12-18T17:15:35;-2.00;99.90
23010;DHT22;11671;49.990;8.028;2022-12-18T17:18:00;-2.00;99.90
23010;DHT22;11671;49.990;8.028;2022-12-18T17:20:26;-2.00;99.90
23010;DHT22;11671;49.990;8.028;2022-12-18T17:22:52;-2.00;99.90
23010;DHT22;11671;49.990;8.028;2022-12-18T17:25:17;-1.90;99.90
23010;DHT22;11671;49.990;8.028;2022-12-18T17:27:43;-1.90;99.90
23010;DHT22;11671;49.990;8.028;2022-12-18T17:30:09;-1.80;99.90
23010;DHT22;11671;49.990;8.028;2022-12-18T17:32:35;-1.80;99.90
23010;DHT22;11671;49.990;8.028;2022-12-18T17:35:01;-1.80;99.90
23010;DHT22;11671;49.990;8.028;2022-12-18T17:37:26;-1.80;99.90
23010;DHT22;11671;49.990;8.028;2022-12-18T17:39:52;-1.70;99.90
23010;DHT22;11671;49.990;8.028;2022-12-18T17:42:18;-1.70;99.90
23010;DHT22;11671;49.990;8.028;2022-12-18T17:44:44;-1.60;99.90